createdAt,value
2022-08-20T00:00:27.378Z,101596.69
2022-08-20T00:03:02.706Z,101594.31
2022-08-20T00:05:34.432Z,101598.91
2022-08-20T00:08:03.954Z,101599.66
2022-08-20T00:10:32.621Z,101591.34
2022-08-20T00:12:59.204Z,101590.72
2022-08-20T00:15:31.448Z,101588.75
2022-08-20T00:17:58.941Z,101592.84
2022-08-20T00:20:29.301Z,101589.72
2022-08-20T00:22:56.950Z,101592.69
2022-08-20T00:25:25.605Z,101592.69
2022-08-20T00:27:52.177Z,101598.66
2022-08-20T00:30:18.630Z,101592.81
2022-08-20T00:32:51.920Z,101601.13
2022-08-20T00:35:20.664Z,101603.38
2022-08-20T00:37:47.462Z,101596.91
2022-08-20T00:40:22.230Z,101597.28
2022-08-20T00:42:55.296Z,101602.13
2022-08-20T00:45:21.728Z,101600.41
2022-08-20T00:47:51.325Z,101603.13
2022-08-20T00:50:33.927Z,101597.66
2022-08-20T00:53:02.804Z,101608.47
2022-08-20T00:55:31.777Z,101601.13
2022-08-20T00:58:03.167Z,101599.16
2022-08-20T01:00:33.961Z,101596.31
2022-08-20T01:03:01.604Z,101596.16
2022-08-20T01:05:29.905Z,101593.94
2022-08-20T01:07:57.033Z,101587.75
2022-08-20T01:10:32.068Z,101592.31
2022-08-20T01:12:59.892Z,101597.13
2022-08-20T01:15:31.789Z,101602.59
2022-08-20T01:18:00.908Z,101597.34
2022-08-20T01:20:36.387Z,101595.63
2022-08-20T01:23:36.005Z,101600.47
2022-08-20T01:26:11.097Z,101607.16
2022-08-20T01:28:37.936Z,101602.94
2022-08-20T01:31:07.179Z,101610.69
2022-08-20T01:33:34.048Z,101597.31
2022-08-20T01:36:00.605Z,101601.28
2022-08-20T01:38:29.450Z,101604.22
2022-08-20T01:41:10.564Z,101610.69
2022-08-20T01:43:37.821Z,101618.13
2022-08-20T01:46:04.825Z,101615.38
2022-08-20T01:48:31.430Z,101610.16
2022-08-20T01:51:04.808Z,101613.56
2022-08-20T01:53:35.989Z,101613.25
2022-08-20T01:56:05.733Z,101618.44
2022-08-20T01:58:34.584Z,101617.19
2022-08-20T02:01:01.000Z,101613.38
2022-08-20T02:03:27.618Z,101616.06
2022-08-20T02:05:54.102Z,101610.75
2022-08-20T02:08:21.686Z,101615.69
2022-08-20T02:10:49.395Z,101612.31
2022-08-20T02:13:16.415Z,101624.22
2022-08-20T02:15:43.313Z,101622.56
2022-08-20T02:18:13.373Z,101624.97
2022-08-20T02:20:41.791Z,101624.56
2022-08-20T02:23:08.392Z,101618.47
2022-08-20T02:25:40.074Z,101622.41
2022-08-20T02:28:11.343Z,101623.81
2022-08-20T02:30:42.007Z,101626.78
2022-08-20T02:33:11.231Z,101628.94
2022-08-20T02:35:39.323Z,101623.16
2022-08-20T02:38:06.111Z,101627.06
2022-08-20T02:40:32.609Z,101628.16
2022-08-20T02:43:00.292Z,101626.94
2022-08-20T02:45:27.506Z,101623.91
2022-08-20T02:47:55.615Z,101628.69
2022-08-20T02:50:23.831Z,101626.06
2022-08-20T02:52:51.666Z,101628.78
2022-08-20T02:55:27.927Z,101629.13
2022-08-20T02:58:00.028Z,101625.88
2022-08-20T03:00:32.237Z,101625.41
2022-08-20T03:03:05.617Z,101627.47
2022-08-20T03:05:32.117Z,101626.06
2022-08-20T03:07:58.607Z,101626.38
2022-08-20T03:10:28.653Z,101622.13
2022-08-20T03:12:55.269Z,101625.06
2022-08-20T03:15:21.689Z,101618.28
2022-08-20T03:17:48.384Z,101616.00
2022-08-20T03:20:15.441Z,101619.03
2022-08-20T03:22:42.411Z,101622.91
2022-08-20T03:25:10.057Z,101621.38
2022-08-20T03:27:36.850Z,101613.56
2022-08-20T03:30:06.962Z,101621.88
2022-08-20T03:32:33.417Z,101636.66
2022-08-20T03:34:59.967Z,101628.72
2022-08-20T03:37:30.941Z,101628.91
2022-08-20T03:39:57.437Z,101632.72
2022-08-20T03:42:23.866Z,101641.06
2022-08-20T03:44:52.571Z,101652.03
2022-08-20T03:47:25.564Z,101643.22
2022-08-20T03:49:51.980Z,101638.75
2022-08-20T03:52:18.382Z,101638.09
2022-08-20T03:54:45.960Z,101641.38
2022-08-20T03:57:15.355Z,101647.22
2022-08-20T03:59:44.433Z,101648.06
2022-08-20T04:02:11.773Z,101651.78
2022-08-20T04:04:40.603Z,101650.22
2022-08-20T04:07:20.488Z,101652.16
2022-08-20T04:09:46.885Z,101645.19
2022-08-20T04:12:13.453Z,101642.78
2022-08-20T04:14:40.224Z,101643.94
2022-08-20T04:17:09.936Z,101645.13
2022-08-20T04:19:37.377Z,101640.84
2022-08-20T04:22:03.944Z,101642.72
2022-08-20T04:24:32.309Z,101636.38
2022-08-20T04:27:00.270Z,101646.56
2022-08-20T04:29:31.916Z,101647.72
2022-08-20T04:32:00.565Z,101648.72
2022-08-20T04:34:29.232Z,101658.56
2022-08-20T04:36:55.988Z,101663.22
2022-08-20T04:39:22.573Z,101662.44
2022-08-20T04:41:49.176Z,101667.22
2022-08-20T04:44:15.578Z,101667.31
2022-08-20T04:46:43.624Z,101663.72
2022-08-20T04:49:10.060Z,101663.63
2022-08-20T04:51:37.053Z,101665.47
2022-08-20T04:54:04.359Z,101667.50
2022-08-20T04:56:38.624Z,101669.44
2022-08-20T04:59:07.134Z,101676.41
2022-08-20T05:01:33.655Z,101669.94
2022-08-20T05:04:00.122Z,101674.47
2022-08-20T05:06:30.634Z,101680.59
2022-08-20T05:08:59.662Z,101684.16
2022-08-20T05:11:33.992Z,101682.22
2022-08-20T05:14:08.606Z,101683.88
2022-08-20T05:16:37.857Z,101684.28
2022-08-20T05:19:05.953Z,101683.28
2022-08-20T05:21:32.400Z,101686.59
2022-08-20T05:23:58.778Z,101686.88
2022-08-20T05:26:26.350Z,101687.16
2022-08-20T05:28:58.819Z,101696.75
2022-08-20T05:31:31.734Z,101691.53
2022-08-20T05:34:03.851Z,101686.28
2022-08-20T05:36:30.374Z,101693.50
2022-08-20T05:38:57.217Z,101693.69
2022-08-20T05:41:29.043Z,101691.22
2022-08-20T05:43:57.879Z,101696.38
2022-08-20T05:46:24.293Z,101698.06
2022-08-20T05:48:50.716Z,101695.06
2022-08-20T05:51:17.548Z,101693.00
2022-08-20T05:53:44.078Z,101700.28
2022-08-20T05:56:13.324Z,101701.66
2022-08-20T05:58:39.878Z,101699.03
2022-08-20T06:01:06.404Z,101702.78
2022-08-20T06:03:51.226Z,101707.22
2022-08-20T06:06:38.779Z,101701.81
2022-08-20T06:09:04.390Z,101710.53
2022-08-20T06:11:33.861Z,101714.50
2022-08-20T06:14:03.848Z,101710.59
2022-08-20T06:16:30.762Z,101720.59
2022-08-20T06:18:58.353Z,101713.38
2022-08-20T06:21:24.993Z,101716.47
2022-08-20T06:23:57.509Z,101711.31
2022-08-20T06:26:30.318Z,101702.09
2022-08-20T06:28:58.499Z,101698.53
2022-08-20T06:31:24.986Z,101693.81
2022-08-20T06:33:51.417Z,101701.31
2022-08-20T06:36:18.840Z,101695.81
2022-08-20T06:38:46.373Z,101700.50
2022-08-20T06:41:13.163Z,101706.75
2022-08-20T06:43:39.657Z,101706.25
2022-08-20T06:46:06.830Z,101708.25
2022-08-20T06:48:34.125Z,101706.59
2022-08-20T06:51:00.684Z,101704.09
2022-08-20T06:53:27.137Z,101707.13
2022-08-20T06:55:56.863Z,101702.63
2022-08-20T06:58:37.468Z,101709.75
2022-08-20T07:01:10.796Z,101717.28
2022-08-20T07:03:38.844Z,101708.91
2022-08-20T07:06:06.422Z,101704.09
2022-08-20T07:08:32.933Z,101709.28
2022-08-20T07:10:59.668Z,101714.66
2022-08-20T07:13:26.192Z,101720.88
2022-08-20T07:15:54.525Z,101714.47
2022-08-20T07:18:27.879Z,101727.34
2022-08-20T07:20:56.920Z,101715.34
2022-08-20T07:23:24.261Z,101711.84
2022-08-20T07:25:50.996Z,101712.75
2022-08-20T07:28:20.851Z,101717.59
2022-08-20T07:31:13.495Z,101725.59
2022-08-20T07:33:42.464Z,101718.03
2022-08-20T07:36:11.196Z,101724.84
2022-08-20T07:38:37.891Z,101726.59
2022-08-20T07:41:13.085Z,101729.50
2022-08-20T07:43:40.600Z,101730.84
2022-08-20T07:46:09.175Z,101730.09
2022-08-20T07:48:46.883Z,101723.09
2022-08-20T07:51:17.048Z,101725.00
2022-08-20T07:53:44.480Z,101734.63
2022-08-20T07:56:13.977Z,101729.25
2022-08-20T07:58:47.423Z,101738.63
2022-08-20T08:01:13.953Z,101738.78
2022-08-20T08:03:49.255Z,101732.34
2022-08-20T08:06:28.654Z,101744.09
2022-08-20T08:08:59.441Z,101739.31
2022-08-20T08:11:26.016Z,101744.81
2022-08-20T08:13:52.551Z,101739.66
2022-08-20T08:16:20.106Z,101731.47
2022-08-20T08:18:50.347Z,101742.25
2022-08-20T08:21:18.979Z,101742.44
2022-08-20T08:23:45.697Z,101748.53
2022-08-20T08:26:16.148Z,101748.56
2022-08-20T08:28:45.365Z,101743.47
2022-08-20T08:31:12.495Z,101733.88
2022-08-20T08:33:40.601Z,101736.28
2022-08-20T08:36:16.364Z,101741.50
2022-08-20T08:38:45.311Z,101737.22
2022-08-20T08:41:16.226Z,101744.94
2022-08-20T08:43:46.790Z,101745.56
2022-08-20T08:46:17.887Z,101754.91
2022-08-20T08:48:48.250Z,101756.06
2022-08-20T08:51:26.618Z,101752.88
2022-08-20T08:53:54.766Z,101763.22
2022-08-20T08:56:28.389Z,101756.09
2022-08-20T08:59:00.472Z,101759.75
2022-08-20T09:01:55.163Z,101768.00
2022-08-20T09:04:16.914Z,101760.03
2022-08-20T09:06:52.308Z,101753.63
2022-08-20T09:09:27.959Z,101760.28
2022-08-20T09:11:57.338Z,101761.03
2022-08-20T09:14:26.710Z,101764.56
2022-08-20T09:16:53.684Z,101759.81
2022-08-20T09:19:21.062Z,101763.50
2022-08-20T09:21:47.441Z,101765.19
2022-08-20T09:24:13.894Z,101776.63
2022-08-20T09:26:40.391Z,101772.03
2022-08-20T09:29:06.952Z,101770.34
2022-08-20T09:31:33.340Z,101772.56
2022-08-20T09:33:59.803Z,101771.53
2022-08-20T09:36:29.210Z,101757.97
2022-08-20T09:38:58.997Z,101760.53
2022-08-20T09:41:25.371Z,101756.91
2022-08-20T09:43:51.748Z,101765.09
2022-08-20T09:46:18.267Z,101754.94
2022-08-20T09:48:44.765Z,101756.03
2022-08-20T09:51:11.302Z,101756.84
2022-08-20T09:53:37.786Z,101758.69
2022-08-20T09:56:04.306Z,101743.34
2022-08-20T09:58:45.372Z,101745.81
2022-08-20T10:01:15.090Z,101750.72
2022-08-20T10:03:47.900Z,101760.09
2022-08-20T10:06:16.537Z,101765.06
2022-08-20T10:08:43.801Z,101754.03
2022-08-20T10:11:10.289Z,101755.72
2022-08-20T10:13:36.728Z,101757.81
2022-08-20T10:16:03.521Z,101754.84
2022-08-20T10:18:29.941Z,101744.94
2022-08-20T10:20:56.532Z,101750.53
2022-08-20T10:23:22.928Z,101746.75
2022-08-20T10:25:49.366Z,101751.16
2022-08-20T10:28:15.775Z,101751.50
2022-08-20T10:30:42.202Z,101749.25
2022-08-20T10:33:08.614Z,101747.84
2022-08-20T10:35:35.198Z,101740.59
2022-08-20T10:38:01.791Z,101748.09
2022-08-20T10:40:28.289Z,101740.09
2022-08-20T10:42:54.704Z,101743.50
2022-08-20T10:45:21.577Z,101739.28
2022-08-20T10:47:48.009Z,101745.66
2022-08-20T10:50:16.649Z,101744.28
2022-08-20T10:52:43.097Z,101741.16
2022-08-20T10:55:09.914Z,101731.88
2022-08-20T10:57:38.880Z,101743.25
2022-08-20T11:00:07.964Z,101743.50
2022-08-20T11:02:34.432Z,101747.28
2022-08-20T11:05:00.852Z,101745.31
2022-08-20T11:07:55.328Z,101743.91
2022-08-20T11:10:19.484Z,101749.00
2022-08-20T11:12:46.621Z,101754.06
2022-08-20T11:15:14.718Z,101749.91
2022-08-20T11:17:43.152Z,101750.66
2022-08-20T11:20:11.801Z,101752.69
2022-08-20T11:22:38.304Z,101743.72
2022-08-20T11:25:06.511Z,101760.28
2022-08-20T11:27:41.689Z,101756.16
2022-08-20T11:30:11.799Z,101744.34
2022-08-20T11:32:38.446Z,101758.88
2022-08-20T11:35:24.423Z,101753.34
2022-08-20T11:37:53.904Z,101751.00
2022-08-20T11:40:20.815Z,101754.50
2022-08-20T11:43:12.690Z,101756.06
2022-08-20T11:45:37.515Z,101759.19
2022-08-20T11:48:04.708Z,101758.63
2022-08-20T11:50:31.179Z,101757.44
2022-08-20T11:52:57.808Z,101758.88
2022-08-20T11:55:30.076Z,101758.19
2022-08-20T11:57:57.333Z,101759.81
2022-08-20T12:00:32.609Z,101756.69
2022-08-20T12:03:00.326Z,101752.78
2022-08-20T12:05:27.389Z,101751.19
2022-08-20T12:07:53.881Z,101751.69
2022-08-20T12:10:20.346Z,101751.78
2022-08-20T12:12:46.748Z,101750.88
2022-08-20T12:15:13.145Z,101743.22
2022-08-20T12:17:39.832Z,101745.66
2022-08-20T12:20:13.479Z,101749.47
2022-08-20T12:22:40.321Z,101752.78
2022-08-20T12:25:08.433Z,101749.47
2022-08-20T12:27:36.153Z,101750.50
2022-08-20T12:30:06.801Z,101755.34
2022-08-20T12:32:34.012Z,101748.47
2022-08-20T12:35:00.585Z,101750.78
2022-08-20T12:37:29.844Z,101753.56
2022-08-20T12:39:58.522Z,101748.78
2022-08-20T12:42:26.275Z,101747.88
2022-08-20T12:44:53.575Z,101748.69
2022-08-20T12:47:21.456Z,101744.78
2022-08-20T12:49:57.334Z,101753.69
2022-08-20T12:52:25.496Z,101751.94
2022-08-20T12:54:52.540Z,101752.94
2022-08-20T12:57:31.286Z,101751.84
2022-08-20T13:00:00.560Z,101742.88
2022-08-20T13:02:27.983Z,101751.72
2022-08-20T13:04:54.460Z,101747.19
2022-08-20T13:07:22.128Z,101738.72
2022-08-20T13:09:48.890Z,101740.13
2022-08-20T13:12:15.369Z,101746.47
2022-08-20T13:14:42.466Z,101740.78
2022-08-20T13:17:09.899Z,101746.88
2022-08-20T13:19:38.357Z,101744.88
2022-08-20T13:22:05.453Z,101735.63
2022-08-20T13:24:32.104Z,101738.16
2022-08-20T13:27:10.994Z,101736.69
2022-08-20T13:29:38.328Z,101739.59
2022-08-20T13:32:05.553Z,101748.09
2022-08-20T13:34:32.084Z,101745.59
2022-08-20T13:36:58.655Z,101741.88
2022-08-20T13:39:25.083Z,101756.84
2022-08-20T13:41:51.580Z,101742.00
2022-08-20T13:44:18.450Z,101739.19
2022-08-20T13:46:45.104Z,101739.44
2022-08-20T13:49:11.535Z,101738.69
2022-08-20T13:51:38.028Z,101739.78
2022-08-20T13:54:04.533Z,101750.72
2022-08-20T13:56:31.014Z,101745.16
2022-08-20T13:58:58.490Z,101751.47
2022-08-20T14:01:24.962Z,101753.69
2022-08-20T14:03:51.426Z,101749.03
2022-08-20T14:06:18.291Z,101750.41
2022-08-20T14:08:44.707Z,101750.59
2022-08-20T14:11:12.805Z,101738.28
2022-08-20T14:13:44.212Z,101736.72
2022-08-20T14:16:21.322Z,101736.31
2022-08-20T14:18:55.499Z,101737.03
2022-08-20T14:21:21.975Z,101737.81
2022-08-20T14:23:48.378Z,101729.38
2022-08-20T14:26:14.785Z,101741.28
2022-08-20T14:28:41.815Z,101729.22
2022-08-20T14:31:08.209Z,101729.97
2022-08-20T14:33:36.123Z,101725.75
2022-08-20T14:36:04.028Z,101734.28
2022-08-20T14:38:30.448Z,101738.38
2022-08-20T14:40:56.880Z,101732.44
2022-08-20T14:43:23.291Z,101740.66
2022-08-20T14:45:49.677Z,101743.94
2022-08-20T14:48:16.142Z,101746.59
2022-08-20T14:50:42.749Z,101737.53
2022-08-20T14:53:09.312Z,101739.59
2022-08-20T14:55:37.503Z,101736.47
2022-08-20T14:58:09.042Z,101736.69
2022-08-20T15:00:35.610Z,101746.00
2022-08-20T15:03:02.125Z,101749.81
2022-08-20T15:05:29.723Z,101741.31
2022-08-20T15:07:57.577Z,101742.66
2022-08-20T15:10:28.705Z,101744.47
2022-08-20T15:12:55.381Z,101742.13
2022-08-20T15:15:23.586Z,101741.25
2022-08-20T15:17:53.693Z,101742.31
2022-08-20T15:20:23.173Z,101744.34
2022-08-20T15:22:49.967Z,101748.38
2022-08-20T15:25:20.321Z,101742.44
2022-08-20T15:27:47.394Z,101751.91
2022-08-20T15:30:18.562Z,101752.22
2022-08-20T15:32:45.378Z,101754.69
2022-08-20T15:35:13.187Z,101759.09
2022-08-20T15:37:45.145Z,101753.38
2022-08-20T15:40:16.125Z,101755.88
2022-08-20T15:42:43.276Z,101743.25
2022-08-20T15:45:22.047Z,101741.50
2022-08-20T15:48:19.855Z,101745.16
2022-08-20T15:51:20.968Z,101744.28
2022-08-20T15:53:50.323Z,101752.84
2022-08-20T15:56:37.388Z,101749.88
2022-08-20T15:59:12.592Z,101750.91
2022-08-20T16:02:00.686Z,101748.63
2022-08-20T16:04:45.875Z,101750.81
2022-08-20T16:07:32.921Z,101750.50
2022-08-20T16:10:27.324Z,101743.47
2022-08-20T16:12:57.742Z,101746.19
2022-08-20T16:15:29.377Z,101747.47
2022-08-20T16:18:08.205Z,101747.16
2022-08-20T16:20:48.037Z,101743.97
2022-08-20T16:23:27.863Z,101747.13
2022-08-20T16:26:28.361Z,101745.31
2022-08-20T16:29:22.516Z,101737.81
2022-08-20T16:31:56.432Z,101741.06
2022-08-20T16:34:33.485Z,101735.22
2022-08-20T16:37:43.593Z,101746.47
2022-08-20T16:40:24.759Z,101738.34
2022-08-20T16:42:53.064Z,101751.53
2022-08-20T16:45:25.799Z,101741.66
2022-08-20T16:47:55.531Z,101745.97
2022-08-20T16:50:25.790Z,101741.47
2022-08-20T16:52:53.164Z,101748.75
2022-08-20T16:55:22.916Z,101743.78
2022-08-20T16:57:51.526Z,101746.31
2022-08-20T17:00:30.438Z,101750.81
2022-08-20T17:03:02.505Z,101746.88
2022-08-20T17:05:44.886Z,101739.38
2022-08-20T17:08:20.452Z,101741.03
2022-08-20T17:10:53.621Z,101739.31
2022-08-20T17:13:28.203Z,101745.97
2022-08-20T17:16:01.529Z,101739.97
2022-08-20T17:18:37.501Z,101731.19
2022-08-20T17:21:12.448Z,101731.34
2022-08-20T17:23:55.624Z,101732.84
2022-08-20T17:26:36.068Z,101743.78
2022-08-20T17:29:18.319Z,101738.22
2022-08-20T17:31:51.509Z,101738.88
2022-08-20T17:34:22.196Z,101742.09
2022-08-20T17:36:54.291Z,101734.69
2022-08-20T17:39:22.923Z,101729.44
2022-08-20T17:41:54.356Z,101720.50
2022-08-20T17:44:30.987Z,101729.13
2022-08-20T17:47:00.024Z,101737.19
2022-08-20T17:49:35.221Z,101734.88
2022-08-20T17:52:05.801Z,101728.78
2022-08-20T17:54:39.184Z,101724.91
2022-08-20T17:57:15.363Z,101732.84
2022-08-20T18:00:00.738Z,101724.75
2022-08-20T18:02:29.671Z,101732.13
2022-08-20T18:04:56.665Z,101725.25
2022-08-20T18:08:08.512Z,101736.34
2022-08-20T18:10:55.308Z,101735.66
2022-08-20T18:13:49.513Z,101737.06
2022-08-20T18:16:28.776Z,101736.72
2022-08-20T18:19:14.963Z,101739.28
2022-08-20T18:21:56.079Z,101736.19
2022-08-20T18:24:58.367Z,101736.88
2022-08-20T18:27:28.076Z,101734.44
2022-08-20T18:30:00.418Z,101733.50
2022-08-20T18:32:34.459Z,101740.69
2022-08-20T18:35:20.861Z,101733.25
2022-08-20T18:37:48.229Z,101750.56
2022-08-20T18:40:28.824Z,101742.28
2022-08-20T18:42:58.587Z,101744.56
2022-08-20T18:45:34.681Z,101747.00
2022-08-20T18:48:03.161Z,101749.19
2022-08-20T18:50:38.539Z,101749.31
2022-08-20T18:53:34.589Z,101750.34
2022-08-20T18:56:11.950Z,101747.78
2022-08-20T18:59:00.737Z,101745.78
2022-08-20T19:01:27.578Z,101748.00
2022-08-20T19:03:56.407Z,101753.59
2022-08-20T19:06:47.548Z,101754.25
2022-08-20T19:09:36.042Z,101747.53
2022-08-20T19:12:16.754Z,101753.84
2022-08-20T19:15:01.331Z,101749.53
2022-08-20T19:17:42.489Z,101749.63
2022-08-20T19:20:16.840Z,101743.31
2022-08-20T19:22:44.573Z,101742.09
2022-08-20T19:25:27.189Z,101743.66
2022-08-20T19:27:54.151Z,101743.66
2022-08-20T19:30:47.357Z,101741.19
2022-08-20T19:33:13.865Z,101746.88
2022-08-20T19:35:40.756Z,101740.16
2022-08-20T19:38:15.010Z,101744.34
2022-08-20T19:40:46.033Z,101743.06
2022-08-20T19:43:17.673Z,101740.06
2022-08-20T19:45:49.030Z,101742.78
2022-08-20T19:48:37.503Z,101739.66
2022-08-20T19:51:24.260Z,101735.66
2022-08-20T19:53:50.869Z,101737.88
2022-08-20T19:56:22.963Z,101732.03
2022-08-20T19:59:05.644Z,101735.09
2022-08-20T20:01:33.591Z,101743.63
2022-08-20T20:04:06.587Z,101736.66
2022-08-20T20:06:41.628Z,101738.66
2022-08-20T20:09:17.344Z,101728.22
2022-08-20T20:11:51.688Z,101727.66
2022-08-20T20:14:22.275Z,101727.34
2022-08-20T20:16:51.314Z,101726.06
2022-08-20T20:19:27.557Z,101730.66
2022-08-20T20:22:28.682Z,101726.13
2022-08-20T20:25:06.326Z,101727.63
2022-08-20T20:27:36.382Z,101724.16
2022-08-20T20:30:10.774Z,101720.03
2022-08-20T20:32:40.049Z,101717.41
2022-08-20T20:35:06.764Z,101711.66
2022-08-20T20:37:50.303Z,101710.25
2022-08-20T20:40:28.571Z,101706.16
2022-08-20T20:43:07.249Z,101707.47
2022-08-20T20:46:16.936Z,101711.41
2022-08-20T20:48:46.686Z,101708.88
2022-08-20T20:51:16.744Z,101705.31
2022-08-20T20:53:51.059Z,101709.00
2022-08-20T20:56:36.211Z,101704.84
2022-08-20T20:59:06.827Z,101700.97
2022-08-20T21:01:48.253Z,101695.94
2022-08-20T21:04:20.453Z,101697.91
2022-08-20T21:06:47.440Z,101700.75
2022-08-20T21:09:14.292Z,101700.88
2022-08-20T21:11:40.728Z,101701.81
2022-08-20T21:14:07.127Z,101702.06
2022-08-20T21:16:33.803Z,101699.44
2022-08-20T21:19:01.246Z,101707.19
2022-08-20T21:21:27.645Z,101702.28
2022-08-20T21:23:54.148Z,101703.59
2022-08-20T21:26:20.604Z,101703.59
2022-08-20T21:28:47.025Z,101708.16
2022-08-20T21:31:13.443Z,101711.44
2022-08-20T21:33:39.910Z,101713.94
2022-08-20T21:36:06.546Z,101711.34
2022-08-20T21:38:33.057Z,101713.63
2022-08-20T21:40:59.682Z,101707.28
2022-08-20T21:43:26.831Z,101703.16
2022-08-20T21:45:53.208Z,101707.63
2022-08-20T21:48:20.253Z,101703.16
2022-08-20T21:50:46.762Z,101705.56
2022-08-20T21:53:13.479Z,101701.22
2022-08-20T21:55:40.740Z,101697.81
2022-08-20T21:58:08.434Z,101692.91
2022-08-20T22:00:47.020Z,101698.34
2022-08-20T22:03:15.116Z,101687.47
2022-08-20T22:05:42.038Z,101688.66
2022-08-20T22:08:08.593Z,101688.16
2022-08-20T22:10:35.035Z,101688.16
2022-08-20T22:13:01.719Z,101683.78
2022-08-20T22:15:28.789Z,101679.44
2022-08-20T22:17:55.174Z,101677.81
2022-08-20T22:20:23.149Z,101677.34
2022-08-20T22:22:49.595Z,101685.72
2022-08-20T22:25:16.358Z,101677.34
2022-08-20T22:27:42.824Z,101682.69
2022-08-20T22:30:10.143Z,101675.50
2022-08-20T22:32:52.080Z,101682.38
2022-08-20T22:35:23.399Z,101677.91
2022-08-20T22:37:49.826Z,101680.84
2022-08-20T22:40:16.270Z,101677.50
2022-08-20T22:42:42.671Z,101673.44
2022-08-20T22:45:11.549Z,101676.84
2022-08-20T22:47:42.164Z,101669.53
2022-08-20T22:50:10.799Z,101663.88
2022-08-20T22:52:39.226Z,101662.13
2022-08-20T22:55:07.126Z,101659.94
2022-08-20T22:57:36.090Z,101660.06
2022-08-20T23:00:04.321Z,101650.72
2022-08-20T23:02:30.719Z,101653.22
2022-08-20T23:04:57.191Z,101652.66
2022-08-20T23:07:23.727Z,101647.63
2022-08-20T23:09:50.227Z,101648.72
2022-08-20T23:12:16.615Z,101655.91
2022-08-20T23:14:43.033Z,101659.91
2022-08-20T23:17:17.507Z,101658.97
2022-08-20T23:19:44.404Z,101660.56
2022-08-20T23:22:11.192Z,101660.69
2022-08-20T23:24:37.733Z,101664.41
2022-08-20T23:27:05.925Z,101658.28
2022-08-20T23:29:32.716Z,101659.16
2022-08-20T23:31:59.931Z,101653.94
2022-08-20T23:34:26.961Z,101661.56
2022-08-20T23:36:55.548Z,101660.03
2022-08-20T23:39:22.236Z,101661.78
2022-08-20T23:41:48.911Z,101654.59
2022-08-20T23:44:25.957Z,101659.38
2022-08-20T23:46:55.488Z,101658.50
2022-08-20T23:49:21.978Z,101652.41
2022-08-20T23:51:48.439Z,101644.13
2022-08-20T23:54:14.968Z,101644.25
2022-08-20T23:56:41.468Z,101649.00
2022-08-20T23:59:07.968Z,101640.44
